createdAt,value
2022-07-27T00:01:40.696Z,15.26
2022-07-27T00:04:17.128Z,15.20
2022-07-27T00:06:44.438Z,15.13
2022-07-27T00:09:11.818Z,15.09
2022-07-27T00:11:38.794Z,15.05
2022-07-27T00:14:05.392Z,15.02
2022-07-27T00:16:32.061Z,14.98
2022-07-27T00:18:58.567Z,14.95
2022-07-27T00:21:26.649Z,14.92
2022-07-27T00:23:54.447Z,14.89
2022-07-27T00:26:21.394Z,14.88
2022-07-27T00:28:48.576Z,14.89
2022-07-27T00:31:15.594Z,14.88
2022-07-27T00:33:42.147Z,14.87
2022-07-27T00:36:09.053Z,14.87
2022-07-27T00:38:35.618Z,14.87
2022-07-27T00:41:02.085Z,14.88
2022-07-27T00:43:28.627Z,14.88
2022-07-27T00:45:55.179Z,14.89
2022-07-27T00:48:21.717Z,14.90
2022-07-27T00:50:48.508Z,14.91
2022-07-27T00:53:15.635Z,14.90
2022-07-27T00:55:42.407Z,14.90
2022-07-27T00:58:09.033Z,14.91
2022-07-27T01:00:37.555Z,14.91
2022-07-27T01:03:09.302Z,14.91
2022-07-27T01:05:42.585Z,14.90
2022-07-27T01:08:12.442Z,14.90
2022-07-27T01:10:40.241Z,14.90
2022-07-27T01:13:06.768Z,14.89
2022-07-27T01:15:40.131Z,14.90
2022-07-27T01:18:11.661Z,14.89
2022-07-27T01:20:40.389Z,14.87
2022-07-27T01:23:06.912Z,14.86
2022-07-27T01:25:34.229Z,14.86
2022-07-27T01:28:00.978Z,14.84
2022-07-27T01:30:27.601Z,14.84
2022-07-27T01:33:04.568Z,14.83
2022-07-27T01:35:32.192Z,14.82
2022-07-27T01:38:00.125Z,14.80
2022-07-27T01:40:27.144Z,14.77
2022-07-27T01:42:53.843Z,14.76
2022-07-27T01:45:20.419Z,14.70
2022-07-27T01:47:47.141Z,14.66
2022-07-27T01:50:13.822Z,14.64
2022-07-27T01:52:40.402Z,14.60
2022-07-27T01:55:10.121Z,14.59
2022-07-27T01:57:37.514Z,14.56
2022-07-27T02:00:13.680Z,14.54
2022-07-27T02:02:41.433Z,14.50
2022-07-27T02:05:11.851Z,14.45
2022-07-27T02:07:41.540Z,14.41
2022-07-27T02:10:09.830Z,14.35
2022-07-27T02:12:36.363Z,14.31
2022-07-27T02:15:15.072Z,14.24
2022-07-27T02:17:43.524Z,14.21
2022-07-27T02:20:11.134Z,14.16
2022-07-27T02:22:37.724Z,14.12
2022-07-27T02:25:05.860Z,14.09
2022-07-27T02:27:32.522Z,14.07
2022-07-27T02:29:59.574Z,14.05
2022-07-27T02:32:26.484Z,14.04
2022-07-27T02:34:53.275Z,14.03
2022-07-27T02:37:19.839Z,14.04
2022-07-27T02:39:46.392Z,14.03
2022-07-27T02:42:13.203Z,14.05
2022-07-27T02:44:40.120Z,14.04
2022-07-27T02:47:06.850Z,14.02
2022-07-27T02:49:33.539Z,13.99
2022-07-27T02:52:00.146Z,13.95
2022-07-27T02:54:26.771Z,13.89
2022-07-27T02:56:54.884Z,13.84
2022-07-27T02:59:23.119Z,13.77
2022-07-27T03:01:50.018Z,13.73
2022-07-27T03:04:17.261Z,13.70
2022-07-27T03:06:44.325Z,13.68
2022-07-27T03:09:11.546Z,13.65
2022-07-27T03:11:38.667Z,13.62
2022-07-27T03:14:05.324Z,13.59
2022-07-27T03:16:31.906Z,13.57
2022-07-27T03:18:58.584Z,13.55
2022-07-27T03:21:25.578Z,13.52
2022-07-27T03:23:52.246Z,13.49
2022-07-27T03:26:19.224Z,13.45
2022-07-27T03:28:45.839Z,13.43
2022-07-27T03:31:12.458Z,13.39
2022-07-27T03:33:39.134Z,13.37
2022-07-27T03:36:05.820Z,13.38
2022-07-27T03:38:32.369Z,13.39
2022-07-27T03:40:59.868Z,13.39
2022-07-27T03:43:26.402Z,13.41
2022-07-27T03:45:53.112Z,13.45
2022-07-27T03:48:19.615Z,13.48
2022-07-27T03:50:46.245Z,13.53
2022-07-27T03:53:12.726Z,13.57
2022-07-27T03:55:39.277Z,13.61
2022-07-27T03:58:05.861Z,13.64
2022-07-27T04:00:32.401Z,13.70
2022-07-27T04:02:58.990Z,13.77
2022-07-27T04:05:29.579Z,13.84
2022-07-27T04:07:56.750Z,13.91
2022-07-27T04:10:25.013Z,13.95
2022-07-27T04:12:56.475Z,14.00
2022-07-27T04:15:23.126Z,14.03
2022-07-27T04:17:55.652Z,14.05
2022-07-27T04:20:24.473Z,14.11
2022-07-27T04:22:51.120Z,14.16
2022-07-27T04:25:17.654Z,14.19
2022-07-27T04:27:44.301Z,14.24
2022-07-27T04:30:11.410Z,14.27
2022-07-27T04:32:38.323Z,14.30
2022-07-27T04:35:07.418Z,14.35
2022-07-27T04:37:34.952Z,14.39
2022-07-27T04:40:02.101Z,14.43
2022-07-27T04:42:29.841Z,14.44
2022-07-27T04:44:56.955Z,14.47
2022-07-27T04:47:23.494Z,14.48
2022-07-27T04:49:50.182Z,14.50
2022-07-27T04:52:17.145Z,14.53
2022-07-27T04:54:44.307Z,14.57
2022-07-27T04:57:10.834Z,14.57
2022-07-27T04:59:37.525Z,14.59
2022-07-27T05:02:04.348Z,14.61
2022-07-27T05:04:30.967Z,14.63
2022-07-27T05:06:57.716Z,14.61
2022-07-27T05:09:24.489Z,14.62
2022-07-27T05:11:52.166Z,14.62
2022-07-27T05:14:21.072Z,14.65
2022-07-27T05:16:48.493Z,14.66
2022-07-27T05:19:15.622Z,14.67
2022-07-27T05:21:42.478Z,14.67
2022-07-27T05:24:10.270Z,14.69
2022-07-27T05:26:37.701Z,14.75
2022-07-27T05:29:04.447Z,14.77
2022-07-27T05:31:31.203Z,14.80
2022-07-27T05:33:58.597Z,14.84
2022-07-27T05:36:25.617Z,14.86
2022-07-27T05:38:52.169Z,14.89
2022-07-27T05:41:26.067Z,14.91
2022-07-27T05:43:54.416Z,14.90
2022-07-27T05:46:21.535Z,14.86
2022-07-27T05:48:48.156Z,14.85
2022-07-27T05:51:14.742Z,14.87
2022-07-27T05:53:43.880Z,14.87
2022-07-27T05:56:10.559Z,14.88
2022-07-27T05:58:37.482Z,14.92
2022-07-27T06:01:04.157Z,14.97
2022-07-27T06:03:31.304Z,14.99
2022-07-27T06:06:16.596Z,15.00
2022-07-27T06:08:43.483Z,15.02
2022-07-27T06:11:10.028Z,15.04
2022-07-27T06:13:37.099Z,15.07
2022-07-27T06:16:09.537Z,15.17
2022-07-27T06:18:39.011Z,15.24
2022-07-27T06:21:05.647Z,15.30
2022-07-27T06:23:32.328Z,15.39
2022-07-27T06:25:59.057Z,15.50
2022-07-27T06:28:25.801Z,15.62
2022-07-27T06:30:53.604Z,15.76
2022-07-27T06:33:28.921Z,15.92
2022-07-27T06:35:57.562Z,15.98
2022-07-27T06:38:25.522Z,15.94
2022-07-27T06:40:53.354Z,15.90
2022-07-27T06:43:21.455Z,15.87
2022-07-27T06:45:49.118Z,15.91
2022-07-27T06:48:16.952Z,15.98
2022-07-27T06:50:43.855Z,16.06
2022-07-27T06:53:10.435Z,16.14
2022-07-27T06:55:39.121Z,16.23
2022-07-27T06:58:05.654Z,16.32
2022-07-27T07:00:32.274Z,16.39
2022-07-27T07:03:02.923Z,16.39
2022-07-27T07:05:30.695Z,16.40
2022-07-27T07:07:57.818Z,16.43
2022-07-27T07:10:26.018Z,16.43
2022-07-27T07:12:55.923Z,16.49
2022-07-27T07:15:24.731Z,16.57
2022-07-27T07:17:51.219Z,16.68
2022-07-27T07:20:17.792Z,16.85
2022-07-27T07:22:44.401Z,17.01
2022-07-27T07:25:11.006Z,17.20
2022-07-27T07:27:37.933Z,17.37
2022-07-27T07:30:05.474Z,17.53
2022-07-27T07:32:33.679Z,17.70
2022-07-27T07:35:01.410Z,17.83
2022-07-27T07:37:33.447Z,18.02
2022-07-27T07:40:24.905Z,18.23
2022-07-27T07:42:48.905Z,18.24
2022-07-27T07:45:16.217Z,18.23
2022-07-27T07:47:42.742Z,18.16
2022-07-27T07:50:09.851Z,18.20
2022-07-27T07:52:37.251Z,18.19
2022-07-27T07:55:04.644Z,18.24
2022-07-27T07:57:31.119Z,18.41
2022-07-27T07:59:57.626Z,18.54
2022-07-27T08:02:24.391Z,18.66
2022-07-27T08:04:51.120Z,18.68
2022-07-27T08:07:17.785Z,18.62
2022-07-27T08:09:44.548Z,18.63
2022-07-27T08:12:11.198Z,18.61
2022-07-27T08:14:37.746Z,18.48
2022-07-27T08:17:05.944Z,18.44
2022-07-27T08:19:35.421Z,18.42
2022-07-27T08:22:06.240Z,18.55
2022-07-27T08:24:32.837Z,18.63
2022-07-27T08:26:59.560Z,18.67
2022-07-27T08:29:35.969Z,18.76
2022-07-27T08:32:05.960Z,18.93
2022-07-27T08:34:32.975Z,19.07
2022-07-27T08:36:59.564Z,19.20
2022-07-27T08:40:06.201Z,19.25
2022-07-27T08:42:12.773Z,19.11
2022-07-27T08:44:41.235Z,18.92
2022-07-27T08:47:11.131Z,18.88
2022-07-27T08:49:43.477Z,19.13
2022-07-27T08:52:11.634Z,19.47
2022-07-27T08:54:39.792Z,19.61
2022-07-27T08:57:10.416Z,19.63
2022-07-27T08:59:37.666Z,19.52
2022-07-27T09:02:09.055Z,19.33
2022-07-27T09:04:35.913Z,19.30
2022-07-27T09:07:02.518Z,19.51
2022-07-27T09:09:42.562Z,19.74
2022-07-27T09:12:10.654Z,19.86
2022-07-27T09:14:39.860Z,19.91
2022-07-27T09:17:48.004Z,19.78
2022-07-27T09:20:19.895Z,19.69
2022-07-27T09:22:52.439Z,19.46
2022-07-27T09:25:52.635Z,19.10
2022-07-27T09:28:29.029Z,18.85
2022-07-27T09:30:55.670Z,18.81
2022-07-27T09:33:22.395Z,18.86
2022-07-27T09:35:59.707Z,19.02
2022-07-27T09:38:26.828Z,19.28
2022-07-27T09:41:04.146Z,19.70
2022-07-27T09:46:29.646Z,20.05
2022-07-27T09:48:56.579Z,20.04
2022-07-27T09:54:13.033Z,19.94
2022-07-27T09:56:40.265Z,19.80
2022-07-27T09:59:06.820Z,19.70
2022-07-27T10:01:35.662Z,19.85
2022-07-27T10:04:05.859Z,20.17
2022-07-27T10:06:47.686Z,20.38
2022-07-27T10:09:20.832Z,20.37
2022-07-27T10:11:48.557Z,20.28
2022-07-27T10:14:16.316Z,20.43
2022-07-27T10:16:48.713Z,20.48
2022-07-27T10:19:20.097Z,20.50
2022-07-27T10:21:48.186Z,20.33
2022-07-27T10:24:32.171Z,20.26
2022-07-27T10:26:59.106Z,20.28
2022-07-27T10:29:25.931Z,20.50
2022-07-27T10:31:52.518Z,20.90
2022-07-27T10:34:38.536Z,21.28
2022-07-27T10:37:13.575Z,21.52
2022-07-27T10:40:20.491Z,21.72
2022-07-27T10:42:53.646Z,21.68
2022-07-27T10:45:22.103Z,21.51
2022-07-27T10:47:52.905Z,21.44
2022-07-27T10:50:20.907Z,21.55
2022-07-27T10:53:03.276Z,21.53
2022-07-27T10:55:30.175Z,21.37
2022-07-27T10:58:08.895Z,21.40
2022-07-27T11:00:56.754Z,21.64
2022-07-27T11:03:27.023Z,21.81
2022-07-27T11:06:04.775Z,21.95
2022-07-27T11:08:47.479Z,22.03
2022-07-27T11:11:20.028Z,21.94
2022-07-27T11:13:47.351Z,21.84
2022-07-27T11:16:23.899Z,21.77
2022-07-27T11:19:02.494Z,21.68
2022-07-27T11:21:37.838Z,21.61
2022-07-27T11:24:12.021Z,21.82
2022-07-27T11:26:41.804Z,21.99
2022-07-27T11:29:10.967Z,22.00
2022-07-27T11:31:54.750Z,21.76
2022-07-27T11:34:30.366Z,21.55
2022-07-27T11:37:03.684Z,21.55
2022-07-27T11:42:21.022Z,22.03
2022-07-27T11:44:48.676Z,22.41
2022-07-27T11:47:19.834Z,22.64
2022-07-27T11:49:46.866Z,22.80
2022-07-27T11:52:17.838Z,22.68
2022-07-27T11:54:51.291Z,22.54
2022-07-27T11:57:19.025Z,22.34
2022-07-27T11:59:46.202Z,22.10
2022-07-27T12:02:17.800Z,22.10
2022-07-27T12:04:47.244Z,22.23
2022-07-27T12:07:17.710Z,22.34
2022-07-27T12:09:48.143Z,22.20
2022-07-27T12:12:23.596Z,21.99
2022-07-27T12:14:51.982Z,21.83
2022-07-27T12:17:35.633Z,21.88
2022-07-27T12:20:08.384Z,22.13
2022-07-27T12:22:46.575Z,22.41
2022-07-27T12:25:19.104Z,22.66
2022-07-27T12:28:01.887Z,22.86
2022-07-27T12:30:33.037Z,22.69
2022-07-27T12:33:00.990Z,22.27
2022-07-27T12:35:48.030Z,22.25
2022-07-27T12:38:15.157Z,22.19
2022-07-27T12:40:50.859Z,22.10
2022-07-27T12:43:20.113Z,22.11
2022-07-27T12:45:48.699Z,22.23
2022-07-27T12:48:25.438Z,22.45
2022-07-27T12:51:04.722Z,22.68
2022-07-27T12:53:32.855Z,22.69
2022-07-27T12:56:02.060Z,22.61
2022-07-27T12:58:28.566Z,22.44
2022-07-27T13:00:55.189Z,22.18
2022-07-27T13:03:21.956Z,21.92
2022-07-27T13:05:48.860Z,21.87
2022-07-27T13:08:16.410Z,21.91
2022-07-27T13:10:44.450Z,21.89
2022-07-27T13:13:11.485Z,21.69
2022-07-27T13:15:38.062Z,21.70
2022-07-27T13:18:04.607Z,21.72
2022-07-27T13:20:31.585Z,21.97
2022-07-27T13:22:58.305Z,22.15
2022-07-27T13:25:24.947Z,22.31
2022-07-27T13:27:51.543Z,22.39
2022-07-27T13:30:19.018Z,22.55
2022-07-27T13:32:48.770Z,22.96
2022-07-27T13:35:17.029Z,23.26
2022-07-27T13:37:44.685Z,23.50
2022-07-27T13:40:11.902Z,23.67
2022-07-27T13:42:38.504Z,23.43
2022-07-27T13:45:10.232Z,23.29
2022-07-27T13:47:38.480Z,23.08
2022-07-27T13:50:05.589Z,23.07
2022-07-27T13:52:32.268Z,23.01
2022-07-27T13:54:58.812Z,23.07
2022-07-27T13:57:25.600Z,23.16
2022-07-27T13:59:52.700Z,23.16
2022-07-27T14:02:23.051Z,23.09
2022-07-27T14:04:51.775Z,23.17
2022-07-27T14:07:18.434Z,23.25
2022-07-27T14:10:03.407Z,23.17
2022-07-27T14:12:29.984Z,23.04
2022-07-27T14:14:56.573Z,22.86
2022-07-27T14:17:23.282Z,22.76
2022-07-27T14:19:49.924Z,22.69
2022-07-27T14:22:16.623Z,22.77
2022-07-27T14:24:43.242Z,22.73
2022-07-27T14:27:09.789Z,22.71
2022-07-27T14:29:36.293Z,22.73
2022-07-27T14:32:03.135Z,22.62
2022-07-27T14:34:29.725Z,22.38
2022-07-27T14:36:56.270Z,22.33
2022-07-27T14:39:22.765Z,22.33
2022-07-27T14:41:49.567Z,22.42
2022-07-27T14:44:18.266Z,22.53
2022-07-27T14:46:46.295Z,22.52
2022-07-27T14:49:14.588Z,22.38
2022-07-27T14:51:42.791Z,22.21
2022-07-27T14:54:09.348Z,22.13
2022-07-27T14:56:36.638Z,22.12
2022-07-27T14:59:03.791Z,22.05
2022-07-27T15:01:30.398Z,22.05
2022-07-27T15:03:56.954Z,22.14
2022-07-27T15:06:23.519Z,22.36
2022-07-27T15:08:50.160Z,22.63
2022-07-27T15:11:16.741Z,22.83
2022-07-27T15:13:43.283Z,22.81
2022-07-27T15:16:11.275Z,22.80
2022-07-27T15:18:39.135Z,22.86
2022-07-27T15:21:12.442Z,22.86
2022-07-27T15:23:43.737Z,22.71
2022-07-27T15:26:11.642Z,22.75
2022-07-27T15:28:39.190Z,22.87
2022-07-27T15:31:06.075Z,22.79
2022-07-27T15:33:32.767Z,22.92
2022-07-27T15:35:59.384Z,23.11
2022-07-27T15:38:25.980Z,23.19
2022-07-27T15:40:52.566Z,23.15
2022-07-27T15:43:19.859Z,23.20
2022-07-27T15:45:49.575Z,23.21
2022-07-27T15:48:19.428Z,23.15
2022-07-27T15:50:49.072Z,22.91
2022-07-27T15:53:17.049Z,22.61
2022-07-27T15:55:44.688Z,22.33
2022-07-27T15:58:13.898Z,22.17
2022-07-27T16:00:41.584Z,22.13
2022-07-27T16:03:12.188Z,22.13
2022-07-27T16:05:40.476Z,22.21
2022-07-27T16:08:09.681Z,24.59
2022-07-27T16:10:37.935Z,27.78
2022-07-27T16:13:05.591Z,27.17
2022-07-27T16:15:52.454Z,27.46
2022-07-27T16:18:19.137Z,26.29
2022-07-27T16:20:45.729Z,25.71
2022-07-27T16:23:18.218Z,25.12
2022-07-27T16:26:04.109Z,24.57
2022-07-27T16:28:33.547Z,24.06
2022-07-27T16:31:00.150Z,23.76
2022-07-27T16:33:26.669Z,23.53
2022-07-27T16:35:53.215Z,23.34
2022-07-27T16:38:19.823Z,23.16
2022-07-27T16:40:47.087Z,22.91
2022-07-27T16:43:13.589Z,22.70
2022-07-27T16:45:40.316Z,22.51
2022-07-27T16:48:06.935Z,22.30
2022-07-27T16:50:33.609Z,22.10
2022-07-27T16:53:01.347Z,22.05
2022-07-27T16:55:28.336Z,21.92
2022-07-27T16:57:55.856Z,21.83
2022-07-27T17:00:22.849Z,21.79
2022-07-27T17:02:49.473Z,21.82
2022-07-27T17:05:16.041Z,21.87
2022-07-27T17:07:43.082Z,22.01
2022-07-27T17:10:10.016Z,22.23
2022-07-27T17:12:39.114Z,22.38
2022-07-27T17:15:07.092Z,22.43
2022-07-27T17:17:34.520Z,22.43
2022-07-27T17:20:01.369Z,22.31
2022-07-27T17:22:27.978Z,22.16
2022-07-27T17:24:54.638Z,22.07
2022-07-27T17:27:22.031Z,22.83
2022-07-27T17:29:49.514Z,22.71
2022-07-27T17:32:16.413Z,22.61
2022-07-27T17:34:45.357Z,22.48
2022-07-27T17:37:12.761Z,22.35
2022-07-27T17:39:39.559Z,22.26
2022-07-27T17:42:06.737Z,22.10
2022-07-27T17:44:34.020Z,21.89
2022-07-27T17:47:01.814Z,21.66
2022-07-27T17:49:28.607Z,21.51
2022-07-27T17:51:55.373Z,21.41
2022-07-27T17:54:23.906Z,21.33
2022-07-27T17:56:50.548Z,21.30
2022-07-27T18:02:04.910Z,21.15
2022-07-27T18:04:35.620Z,21.09
2022-07-27T18:07:05.421Z,21.04
2022-07-27T18:09:31.978Z,21.01
2022-07-27T18:11:58.537Z,21.01
2022-07-27T18:14:25.078Z,21.05
2022-07-27T18:16:51.680Z,21.10
2022-07-27T18:19:19.217Z,21.41
2022-07-27T18:21:45.779Z,21.89
2022-07-27T18:24:12.254Z,22.26
2022-07-27T18:26:38.974Z,22.65
2022-07-27T18:29:05.732Z,22.93
2022-07-27T18:31:32.598Z,22.92
2022-07-27T18:33:59.344Z,22.64
2022-07-27T18:36:26.253Z,22.27
2022-07-27T18:38:52.794Z,21.97
2022-07-27T18:41:19.494Z,21.67
2022-07-27T18:43:51.205Z,21.40
2022-07-27T18:46:22.349Z,21.15
2022-07-27T18:48:49.442Z,20.95
2022-07-27T18:51:16.629Z,20.76
2022-07-27T18:53:44.116Z,20.60
2022-07-27T18:56:10.906Z,20.43
2022-07-27T18:58:37.612Z,20.27
2022-07-27T19:01:04.394Z,20.11
2022-07-27T19:03:31.421Z,19.95
2022-07-27T19:05:58.853Z,19.80
2022-07-27T19:08:25.421Z,19.67
2022-07-27T19:10:52.470Z,19.52
2022-07-27T19:13:19.115Z,19.39
2022-07-27T19:15:45.826Z,19.25
2022-07-27T19:18:12.605Z,19.10
2022-07-27T19:20:39.120Z,18.94
2022-07-27T19:23:06.948Z,18.82
2022-07-27T19:25:34.107Z,18.71
2022-07-27T19:28:02.807Z,18.60
2022-07-27T19:30:29.702Z,18.48
2022-07-27T19:32:56.515Z,18.39
2022-07-27T19:35:23.363Z,18.26
2022-07-27T19:37:49.916Z,18.13
2022-07-27T19:43:06.015Z,17.86
2022-07-27T19:45:33.360Z,17.74
2022-07-27T19:48:01.672Z,17.60
2022-07-27T19:50:29.033Z,17.52
2022-07-27T19:52:55.574Z,17.41
2022-07-27T19:55:22.106Z,17.31
2022-07-27T19:57:48.673Z,17.21
2022-07-27T20:00:15.625Z,17.15
2022-07-27T20:02:42.269Z,17.11
2022-07-27T20:05:09.201Z,17.05
2022-07-27T20:07:37.162Z,17.01
2022-07-27T20:10:05.712Z,16.97
2022-07-27T20:12:32.788Z,16.94
2022-07-27T20:15:00.374Z,16.89
2022-07-27T20:17:26.889Z,16.83
2022-07-27T20:19:53.574Z,16.77
2022-07-27T20:22:20.327Z,16.70
2022-07-27T20:24:46.915Z,16.67
2022-07-27T20:27:13.662Z,16.63
2022-07-27T20:29:40.355Z,16.60
2022-07-27T20:32:07.711Z,16.56
2022-07-27T20:34:34.370Z,16.52
2022-07-27T20:37:01.104Z,16.47
2022-07-27T20:39:27.721Z,16.44
2022-07-27T20:41:54.523Z,16.40
2022-07-27T20:44:21.226Z,16.37
2022-07-27T20:46:48.152Z,16.32
2022-07-27T20:49:15.209Z,16.24
2022-07-27T20:51:42.193Z,16.21
2022-07-27T20:54:08.743Z,16.17
2022-07-27T20:56:35.425Z,16.12
2022-07-27T20:59:02.092Z,16.08
2022-07-27T21:01:34.393Z,16.04
2022-07-27T21:04:01.173Z,15.98
2022-07-27T21:06:27.944Z,15.95
2022-07-27T21:08:54.491Z,15.89
2022-07-27T21:11:21.005Z,15.85
2022-07-27T21:13:47.793Z,15.82
2022-07-27T21:16:14.527Z,15.79
2022-07-27T21:18:41.195Z,15.77
2022-07-27T21:21:07.819Z,15.75
2022-07-27T21:23:53.133Z,15.69
2022-07-27T21:26:19.848Z,15.62
2022-07-27T21:28:47.973Z,15.57
2022-07-27T21:31:14.592Z,15.52
2022-07-27T21:33:41.132Z,15.49
2022-07-27T21:36:07.972Z,15.45
2022-07-27T21:38:34.769Z,15.42
2022-07-27T21:41:01.397Z,15.36
2022-07-27T21:43:27.905Z,15.33
2022-07-27T21:45:54.497Z,15.27
2022-07-27T21:48:21.046Z,15.23
2022-07-27T21:50:47.631Z,15.20
2022-07-27T21:53:14.440Z,15.15
2022-07-27T21:55:41.066Z,15.10
2022-07-27T21:58:08.412Z,15.05
2022-07-27T22:00:34.963Z,15.00
2022-07-27T22:03:01.588Z,14.96
2022-07-27T22:05:28.099Z,14.92
2022-07-27T22:07:54.592Z,14.88
2022-07-27T22:10:21.169Z,14.84
2022-07-27T22:12:47.693Z,14.80
2022-07-27T22:15:14.193Z,14.78
2022-07-27T22:17:49.875Z,14.74
2022-07-27T22:20:18.589Z,14.67
2022-07-27T22:22:45.565Z,14.62
2022-07-27T22:25:12.065Z,14.57
2022-07-27T22:27:38.737Z,14.51
2022-07-27T22:30:06.153Z,14.47
2022-07-27T22:32:32.751Z,14.44
2022-07-27T22:34:59.271Z,14.36
2022-07-27T22:37:25.969Z,14.34
2022-07-27T22:39:52.863Z,14.30
2022-07-27T22:42:19.447Z,14.27
2022-07-27T22:44:45.917Z,14.24
2022-07-27T22:47:12.533Z,14.20
2022-07-27T22:49:39.279Z,14.17
2022-07-27T22:52:06.273Z,14.14
2022-07-27T22:54:37.615Z,14.08
2022-07-27T22:57:05.874Z,14.05
2022-07-27T22:59:33.422Z,14.01
2022-07-27T23:02:00.366Z,13.97
2022-07-27T23:04:27.009Z,13.94
2022-07-27T23:06:53.583Z,13.90
2022-07-27T23:09:20.125Z,13.86
2022-07-27T23:11:46.655Z,13.82
2022-07-27T23:14:13.577Z,13.79
2022-07-27T23:16:41.951Z,13.73
2022-07-27T23:19:09.126Z,13.68
2022-07-27T23:21:37.379Z,13.63
2022-07-27T23:24:04.877Z,13.60
2022-07-27T23:26:31.672Z,13.53
2022-07-27T23:28:58.320Z,13.49
2022-07-27T23:31:25.972Z,13.43
2022-07-27T23:33:52.629Z,13.38
2022-07-27T23:36:19.152Z,13.35
2022-07-27T23:38:45.804Z,13.29
2022-07-27T23:41:12.576Z,13.23
2022-07-27T23:43:39.228Z,13.18
2022-07-27T23:46:06.826Z,13.12
2022-07-27T23:48:33.574Z,13.05
2022-07-27T23:51:00.118Z,12.98
2022-07-27T23:53:28.354Z,12.93
2022-07-27T23:55:55.010Z,12.89
2022-07-27T23:58:21.540Z,12.84
